Weather observations for the past three days for
Columbia, Columbia Regional Airport
Imperial (Metric)
Date Time (cdt) Wind (mph) Vis. (mi.) Weather Sky Cond. Temperature (ºF) Relative Humidity Wind Chill (°F) Heat Index (°F) Pressure Precipitation (in)
Air Dwpt 6 hour altimeter (in) sea level (mb) 1 hr 3 hr 6 hr
Max. Min.
01 01:54 S 7 10.00 Fair CLR 75 66 74% 76 30.01 1015.0
01 00:54 S 8 10.00 Fair CLR 75.9 66.9 90 75.9 74% 77 30.01 1015.0
31 23:54 S 6 10.00 Fair CLR 77 69.1 77% 79 30 1014.6
31 22:54 S 8 10.00 Fair CLR 79 69.1 72% 82 29.99 1014.5
31 21:54 S 8 10.00 Fair CLR 81 69.1 67% 84 29.99 1014.5
31 20:54 SE 3 10.00 Fair CLR 82 68 63% 85 29.98 1014.1
31 19:54 S 7 10.00 Fair CLR 87.1 66 50% 89 29.96 1013.6
31 18:54 S 6 10.00 Fair CLR 90 70 98.1 90 52% 95 29.96 1013.5
31 17:54 S 7 10.00 Fair CLR 95 69.1 43% 101 29.96 1013.4
31 16:54 SW 7 10.00 Fair CLR 98.1 64.9 34% 101 29.97 1013.6
31 15:54 S 9 10.00 Fair CLR 98.1 66 35% 102 29.97 1013.8
31 14:54 SW 14 10.00 Fair CLR 97 66.9 37% 101 29.98 1014.1
31 13:54 SW 9 10.00 Fair CLR 95 66.9 40% 99 30 1014.8
31 12:54 SW 12 10.00 Fair CLR 93 66.9 93.9 70 42% 97 30.02 1015.4
31 11:54 SW 13 10.00 Fair CLR 91.9 66.9 44% 95 30.03 1016.0
31 10:54 SW 13 10.00 Fair CLR 89.1 66.9 48% 92 30.04 1016.1
31 09:54 SW 14 10.00 Fair CLR 84.9 66 53% 87 30.03 1016.0
31 08:54 S 9 10.00 Fair CLR 79 64 60% 81 30.03 1015.9
31 07:54 S 8 10.00 Fair CLR 73 63 71% 30.02 1015.7
31 06:54 S 7 10.00 Fair CLR 70 62.1 75.9 70 76% 30 1014.9
31 05:54 S 5 10.00 Fair CLR 71.1 62.1 73% 30 1014.8
31 04:54 S 8 10.00 Fair CLR 72 62.1 71% 29.99 1014.3
31 03:54 S 8 10.00 Fair CLR 72 62.1 71% 29.98 1014.2
31 02:54 S 8 10.00 Fair CLR 73.9 63 69% 29.97 1013.9
31 01:54 S 9 10.00 Fair CLR 75 63 66% 77 29.98 1014.1
31 00:54 S 9 10.00 Fair CLR 75 64.9 89.1 73.9 71% 77 29.98 1014.2
30 23:54 SE 8 10.00 Fair CLR 75 66 74% 76 29.97 1013.9
30 22:54 SE 7 10.00 Fair CLR 77 66.9 71% 79 29.97 1013.8
30 21:54 SE 7 10.00 Fair CLR 78.1 68 71% 80 29.96 1013.6
30 20:54 SE 8 10.00 Fair CLR 80.1 69.1 69% 83 29.94 1013.0
30 19:54 SE 8 10.00 Fair CLR 82.9 69.1 63% 87 29.93 1012.6
30 18:54 SE 7 10.00 Fair CLR 89.1 68 95 89.1 50% 93 29.93 1012.6
30 17:54 S 8 10.00 Fair CLR 93 66 41% 96 29.93 1012.6
30 16:54 S 8 10.00 Fair CLR 93.9 64.9 38% 96 29.94 1012.8
30 15:54 S 9 10.00 Fair CLR 93.9 66 40% 97 29.95 1013.3
30 14:54 S 9 10.00 Fair CLR 93 66 41% 96 29.97 1013.8
30 13:54 S 10 10.00 Fair CLR 91.9 64.9 41% 94 29.99 1014.5
30 12:54 S 14 G 20 10.00 Fair CLR 90 64 90 66.9 42% 91 30 1014.9
30 11:54 SW 14 G 22 10.00 Fair CLR 89.1 63 42% 90 30.01 1015.4
30 10:54 S 10 10.00 Fair CLR 84 64.9 53% 86 30.02 1015.7
30 09:54 S 10 10.00 Fair CLR 80.1 63 56% 81 30.01 1015.3
30 08:54 S 8 10.00 Fair CLR 75 62.1 64% 77 30.01 1015.3
30 07:54 S 9 10.00 Fair CLR 71.1 60.1 68% 30 1015.2
30 05:54 S 7 10.00 Fair CLR 68 59 73% 30.01 1015.5
30 04:54 S 10 10.00 Fair CLR 71.1 59 66% 29.99 1014.7
30 03:54 SE 9 10.00 Fair CLR 69.1 60.1 73% 30 1014.8
30 02:54 S 9 10.00 Fair CLR 70 60.1 71% 29.99 1014.7
30 01:54 S 9 10.00 Fair CLR 71.1 61 71% 30 1015.0
30 00:54 S 9 10.00 Fair CLR 71.1 62.1 81 71.1 73% 30.01 1015.4
29 23:54 S 8 10.00 Fair CLR 72 63 73% 30.01 1015.3
29 22:54 SE 9 10.00 Fair CLR 72 63 73% 30.01 1015.4
29 21:54 SE 8 10.00 Fair CLR 73 64 74% 30.01 1015.4
29 20:54 SE 8 10.00 Fair CLR 75 64.9 71% 77 30 1015.0
29 19:54 SE 8 10.00 Fair CLR 78.1 66 67% 80 29.98 1014.6
29 18:54 SE 10 10.00 Fair CLR 82 66 88 82 58% 84 29.99 1014.9
29 17:54 SE 12 10.00 Fair CLR 84.9 66.9 55% 88 30 1015.1
29 15:54 SE 10 10.00 Fair CLR 88 66 48% 90 30.02 1015.8
29 14:54 S 8 10.00 Fair CLR 87.1 64.9 48% 89 30.05 1017.0
29 13:54 S 12 10.00 Fair CLR 86 66 51% 88 30.08 1017.7
29 12:54 S 9 10.00 Fair CLR 82.9 66 82.9 61 57% 85 30.09 1018.2
29 11:54 S 9 10.00 Fair CLR 81 64 57% 83 30.11 1018.7
29 10:54 S 9 10.00 Fair CLR 78.1 64 62% 80 30.12 1019.2
29 09:54 S 12 10.00 Fair CLR 75 63 66% 77 30.13 1019.5
29 08:54 S 8 10.00 Fair CLR 70 62.1 76% 30.13 1019.7
29 07:54 SE 7 10.00 Fair CLR 64.9 61 87% 30.13 1019.4
29 06:54 SE 7 10.00 Fair CLR 61 57.9 66.9 61 90% 30.12 1019.3
29 05:54 S 7 10.00 Fair CLR 61 57.9 90% 30.12 1019.2
29 04:54 SE 7 10.00 Fair CLR 63 59 87% 30.12 1019.2
29 03:54 SE 6 10.00 Fair CLR 64 60.1 87% 30.12 1019.0
29 02:54 SE 6 10.00 Fair CLR 63 60.1 90% 30.11 1018.8
Date Time (cdt) Wind (mph) Vis. (mi.) Weather Sky Cond. Air Dwpt Max. Min. Relative Humidity Wind Chill (°F) Heat Index (°F) altimeter (in) sea level (mb) 1 hr 3 hr 6 hr
6 hour
Temperature (ºF) Pressure Precipitation (in)